createdAt,value
2019-04-02T00:02:31.067Z,95170.20
2019-04-02T00:04:58.460Z,95170.13
2019-04-02T00:07:26.153Z,95167.97
2019-04-02T00:09:54.474Z,95166.52
2019-04-02T00:12:22.327Z,95170.22
2019-04-02T00:14:49.651Z,95179.78
2019-04-02T00:17:17.079Z,95176.29
2019-04-02T00:19:44.464Z,95173.11
2019-04-02T00:22:11.804Z,95180.07
2019-04-02T00:24:39.248Z,95173.96
2019-04-02T00:27:06.607Z,95172.92
2019-04-02T00:29:33.933Z,95187.32
2019-04-02T00:32:01.315Z,95179.31
2019-04-02T00:34:28.691Z,95185.95
2019-04-02T00:36:56.053Z,95182.70
2019-04-02T00:39:23.381Z,95184.58
2019-04-02T00:41:50.790Z,95184.17
2019-04-02T00:44:18.142Z,95176.09
2019-04-02T00:46:45.504Z,95180.97
2019-04-02T00:49:13.279Z,95189.52
2019-04-02T00:51:42.157Z,95170.58
2019-04-02T00:54:09.531Z,95170.76
2019-04-02T00:56:36.931Z,95164.38
2019-04-02T00:59:04.305Z,95167.27
2019-04-02T01:01:31.671Z,95176.80
2019-04-02T01:03:59.071Z,95183.83
2019-04-02T01:06:26.446Z,95184.23
2019-04-02T01:08:53.780Z,95186.05
2019-04-02T01:11:21.248Z,95175.14
2019-04-02T01:13:49.101Z,95174.50
2019-04-02T01:16:16.471Z,95171.67
2019-04-02T01:18:43.873Z,95170.58
2019-04-02T01:21:11.263Z,95171.30
2019-04-02T01:23:38.649Z,95174.41
2019-04-02T01:26:05.991Z,95175.14
2019-04-02T01:28:33.353Z,95180.55
2019-04-02T01:31:00.799Z,95182.33
2019-04-02T01:33:28.134Z,95182.13
2019-04-02T01:35:55.911Z,95179.13
2019-04-02T01:38:23.275Z,95178.77
2019-04-02T01:40:50.631Z,95175.41
2019-04-02T01:43:18.029Z,95169.94
2019-04-02T01:45:45.390Z,95176.00
2019-04-02T01:48:13.311Z,95175.16
2019-04-02T01:50:41.244Z,95177.23
2019-04-02T01:53:08.611Z,95175.55
2019-04-02T01:55:36.011Z,95169.03
2019-04-02T01:58:03.353Z,95167.42
2019-04-02T02:00:30.968Z,95160.62
2019-04-02T02:02:58.393Z,95158.52
2019-04-02T02:05:25.731Z,95165.64
2019-04-02T02:07:53.093Z,95168.48
2019-04-02T02:10:20.489Z,95163.10
2019-04-02T02:12:47.851Z,95163.66
2019-04-02T02:15:15.283Z,95159.18
2019-04-02T02:17:42.697Z,95163.56
2019-04-02T02:20:10.132Z,95165.05
2019-04-02T02:22:37.485Z,95158.02
2019-04-02T02:25:04.991Z,95155.89
2019-04-02T02:27:33.222Z,95153.83
2019-04-02T02:30:01.612Z,95153.06
2019-04-02T02:32:28.971Z,95158.53
2019-04-02T02:34:56.346Z,95158.36
2019-04-02T02:37:23.709Z,95158.23
2019-04-02T02:39:53.261Z,95157.56
2019-04-02T02:42:20.631Z,95162.77
2019-04-02T02:44:48.040Z,95159.44
2019-04-02T02:47:16.311Z,95161.72
2019-04-02T02:49:43.912Z,95164.42
2019-04-02T02:52:11.312Z,95170.59
2019-04-02T02:54:38.647Z,95162.55
2019-04-02T02:57:06.066Z,95168.58
2019-04-02T02:59:33.441Z,95167.88
2019-04-02T03:02:00.770Z,95163.87
2019-04-02T03:04:30.832Z,95159.84
2019-04-02T03:06:58.325Z,95162.18
2019-04-02T03:09:25.752Z,95156.63
2019-04-02T03:11:53.108Z,95151.41
2019-04-02T03:14:20.492Z,95154.91
2019-04-02T03:16:47.893Z,95156.72
2019-04-02T03:19:15.288Z,95158.92
2019-04-02T03:21:42.646Z,95157.39
2019-04-02T03:24:10.023Z,95154.13
2019-04-02T03:26:37.401Z,95161.22
2019-04-02T03:29:04.815Z,95166.33
2019-04-02T03:31:34.790Z,95157.91
2019-04-02T03:34:01.442Z,95157.16
2019-04-02T03:36:28.832Z,95154.53
2019-04-02T03:38:56.194Z,95158.03
2019-04-02T03:41:23.611Z,95156.33
2019-04-02T03:43:50.952Z,95153.11
2019-04-02T03:46:18.448Z,95149.69
2019-04-02T03:48:45.848Z,95148.22
2019-04-02T03:51:15.789Z,95146.11
2019-04-02T03:53:42.493Z,95144.95
2019-04-02T03:56:09.846Z,95138.98
2019-04-02T03:58:37.207Z,95145.89
2019-04-02T04:01:04.573Z,95145.66
2019-04-02T04:03:32.764Z,95148.33
2019-04-02T04:06:00.242Z,95147.30
2019-04-02T04:08:27.653Z,95147.55
2019-04-02T04:11:03.872Z,95145.45
2019-04-02T04:13:31.292Z,95146.08
2019-04-02T04:15:58.681Z,95144.46
2019-04-02T04:18:26.002Z,95146.22
2019-04-02T04:20:53.406Z,95142.53
2019-04-02T04:23:20.856Z,95147.45
2019-04-02T04:25:48.383Z,95145.39
2019-04-02T04:28:15.756Z,95146.37
2019-04-02T04:30:43.116Z,95149.33
2019-04-02T04:33:10.529Z,95150.98
2019-04-02T04:35:39.957Z,95150.77
2019-04-02T04:38:07.128Z,95142.83
2019-04-02T04:40:34.761Z,95146.37
2019-04-02T04:43:02.172Z,95142.50
2019-04-02T04:45:31.018Z,95147.17
2019-04-02T04:47:59.692Z,95146.59
2019-04-02T04:50:28.622Z,95135.97
2019-04-02T04:52:57.264Z,95146.87
2019-04-02T04:55:26.512Z,95136.59
2019-04-02T04:57:55.226Z,95143.47
2019-04-02T05:00:24.457Z,95136.84
2019-04-02T05:03:28.580Z,95139.35
2019-04-02T05:05:55.971Z,95149.47
2019-04-02T05:08:23.429Z,95149.55
2019-04-02T05:10:51.610Z,95150.36
2019-04-02T05:13:19.394Z,95146.47
2019-04-02T05:15:46.751Z,95143.38
2019-04-02T05:18:14.171Z,95152.77
2019-04-02T05:20:41.525Z,95150.24
2019-04-02T05:23:08.900Z,95150.61
2019-04-02T05:25:36.368Z,95150.66
2019-04-02T05:28:03.760Z,95152.17
2019-04-02T05:30:31.153Z,95145.83
2019-04-02T05:33:00.336Z,95142.56
2019-04-02T05:35:27.840Z,95146.52
2019-04-02T05:37:55.271Z,95150.98
2019-04-02T05:40:22.606Z,95153.68
2019-04-02T05:42:50.005Z,95151.50
2019-04-02T05:45:17.353Z,95153.61
2019-04-02T05:47:44.749Z,95155.95
2019-04-02T05:50:12.209Z,95148.27
2019-04-02T05:52:39.570Z,95149.80
2019-04-02T05:55:07.117Z,95150.20
2019-04-02T05:57:34.527Z,95153.42
2019-04-02T06:00:02.071Z,95148.68
2019-04-02T06:02:29.406Z,95148.58
2019-04-02T06:04:56.831Z,95148.30
2019-04-02T06:07:24.190Z,95146.55
2019-04-02T06:09:51.656Z,95141.69
2019-04-02T06:12:19.047Z,95141.23
2019-04-02T06:14:46.427Z,95139.39
2019-04-02T06:17:13.781Z,95141.41
2019-04-02T06:19:46.981Z,95130.30
2019-04-02T06:22:10.432Z,95132.95
2019-04-02T06:24:37.861Z,95127.38
2019-04-02T06:27:05.207Z,95130.59
2019-04-02T06:29:34.086Z,95129.78
2019-04-02T06:32:01.491Z,95129.33
2019-04-02T06:34:28.869Z,95129.47
2019-04-02T06:36:56.245Z,95118.86
2019-04-02T06:39:26.135Z,95123.50
2019-04-02T06:41:52.891Z,95121.41
2019-04-02T06:44:24.464Z,95117.89
2019-04-02T06:46:50.880Z,95116.52
2019-04-02T06:49:36.447Z,95117.08
2019-04-02T06:52:03.814Z,95112.93
2019-04-02T06:54:31.446Z,95112.09
2019-04-02T06:56:59.120Z,95114.53
2019-04-02T06:59:26.927Z,95113.45
2019-04-02T07:01:54.315Z,95112.61
2019-04-02T07:04:21.712Z,95113.09
2019-04-02T07:06:49.116Z,95113.44
2019-04-02T07:09:16.860Z,95103.67
2019-04-02T07:11:44.207Z,95110.67
2019-04-02T07:14:11.684Z,95100.14
2019-04-02T07:16:42.056Z,95099.38
2019-04-02T07:19:09.481Z,95096.85
2019-04-02T07:21:36.819Z,95089.14
2019-04-02T07:24:04.200Z,95090.41
2019-04-02T07:26:31.894Z,95084.80
2019-04-02T07:28:59.214Z,95079.24
2019-04-02T07:31:26.628Z,95077.14
2019-04-02T07:33:54.002Z,95066.75
2019-04-02T07:36:21.375Z,95064.33
2019-04-02T07:38:48.780Z,95063.11
2019-04-02T07:41:16.172Z,95053.28
2019-04-02T07:43:43.593Z,95050.64
2019-04-02T07:46:10.976Z,95051.37
2019-04-02T07:48:38.353Z,95054.22
2019-04-02T07:51:05.711Z,95050.73
2019-04-02T07:53:33.066Z,95037.98
2019-04-02T07:56:00.421Z,95040.65
2019-04-02T07:58:27.799Z,95035.95
2019-04-02T08:00:55.961Z,95036.19
2019-04-02T08:03:23.684Z,95031.70
2019-04-02T08:05:51.023Z,95029.16
2019-04-02T08:08:18.451Z,95031.85
2019-04-02T08:10:45.764Z,95023.41
2019-04-02T08:13:13.167Z,95027.66
2019-04-02T08:15:40.525Z,95028.06
2019-04-02T08:18:19.321Z,95031.78
2019-04-02T08:20:46.705Z,95025.93
2019-04-02T08:23:14.024Z,95029.31
2019-04-02T08:25:41.382Z,95025.20
2019-04-02T08:28:08.758Z,95016.00
2019-04-02T08:30:36.469Z,95018.78
2019-04-02T08:33:03.819Z,95012.00
2019-04-02T08:35:31.148Z,95011.47
2019-04-02T08:37:58.529Z,95008.98
2019-04-02T08:40:26.155Z,95006.61
2019-04-02T08:42:53.589Z,95010.20
2019-04-02T08:45:20.909Z,94999.21
2019-04-02T08:47:48.271Z,94998.95
2019-04-02T08:50:15.785Z,95000.20
2019-04-02T08:52:43.111Z,94991.41
2019-04-02T08:55:11.128Z,94988.33
2019-04-02T08:57:38.866Z,94988.03
2019-04-02T09:00:09.519Z,94983.11
2019-04-02T09:02:36.899Z,94989.65
2019-04-02T09:05:05.153Z,94979.30
2019-04-02T09:07:33.283Z,94974.16
2019-04-02T09:10:00.784Z,94975.95
2019-04-02T09:12:28.163Z,94968.70
2019-04-02T09:14:55.541Z,94964.20
2019-04-02T09:17:22.923Z,94963.80
2019-04-02T09:19:50.308Z,94957.47
2019-04-02T09:22:17.609Z,94955.67
2019-04-02T09:24:44.965Z,94954.05
2019-04-02T09:27:12.349Z,94955.16
2019-04-02T09:29:39.790Z,94945.47
2019-04-02T09:32:07.191Z,94948.26
2019-04-02T09:34:34.539Z,94944.12
2019-04-02T09:37:01.899Z,94944.34
2019-04-02T09:39:29.330Z,94935.41
2019-04-02T09:41:56.667Z,94929.52
2019-04-02T09:44:24.029Z,94922.19
2019-04-02T09:46:51.440Z,94918.47
2019-04-02T09:49:18.782Z,94920.00
2019-04-02T09:51:46.126Z,94918.91
2019-04-02T09:54:13.584Z,94912.80
2019-04-02T09:56:40.997Z,94910.20
2019-04-02T09:59:08.411Z,94909.12
2019-04-02T10:01:37.803Z,94904.89
2019-04-02T10:04:08.128Z,94900.44
2019-04-02T10:06:34.411Z,94894.22
2019-04-02T10:09:02.431Z,94890.23
2019-04-02T10:11:29.783Z,94878.59
2019-04-02T10:13:57.182Z,94873.19
2019-04-02T10:16:24.639Z,94869.08
2019-04-02T10:18:52.595Z,94865.09
2019-04-02T10:21:20.197Z,94859.61
2019-04-02T10:23:47.636Z,94852.03
2019-04-02T10:26:15.133Z,94846.85
2019-04-02T10:28:42.546Z,94845.23
2019-04-02T10:31:10.024Z,94839.16
2019-04-02T10:33:37.372Z,94831.24
2019-04-02T10:36:04.768Z,94826.95
2019-04-02T10:38:32.152Z,94822.16
2019-04-02T10:40:59.952Z,94816.42
2019-04-02T10:43:27.281Z,94815.01
2019-04-02T10:45:54.697Z,94805.22
2019-04-02T10:48:22.046Z,94798.78
2019-04-02T10:50:49.347Z,94794.30
2019-04-02T10:53:16.690Z,94789.47
2019-04-02T10:55:44.045Z,94785.77
2019-04-02T10:58:12.181Z,94779.86
2019-04-02T11:00:40.275Z,94776.06
2019-04-02T11:03:07.639Z,94768.58
2019-04-02T11:05:34.980Z,94762.90
2019-04-02T11:08:02.365Z,94764.61
2019-04-02T11:10:29.778Z,94758.73
2019-04-02T11:12:57.150Z,94752.50
2019-04-02T11:15:24.511Z,94751.01
2019-04-02T11:17:51.898Z,94750.13
2019-04-02T11:20:19.263Z,94742.72
2019-04-02T11:22:46.630Z,94746.40
2019-04-02T11:25:14.085Z,94733.94
2019-04-02T11:27:41.476Z,94729.48
2019-04-02T11:30:09.216Z,94731.87
2019-04-02T11:32:36.589Z,94728.11
2019-04-02T11:35:05.900Z,94722.75
2019-04-02T11:37:33.259Z,94713.54
2019-04-02T11:40:00.652Z,94715.31
2019-04-02T11:42:27.970Z,94711.77
2019-04-02T11:44:55.339Z,94708.09
2019-04-02T11:47:22.851Z,94708.22
2019-04-02T11:49:50.249Z,94700.92
2019-04-02T11:52:17.627Z,94698.28
2019-04-02T11:54:44.955Z,94693.25
2019-04-02T11:57:12.410Z,94695.31
2019-04-02T11:59:39.867Z,94680.55
2019-04-02T12:02:09.104Z,94680.90
2019-04-02T12:04:36.505Z,94674.77
2019-04-02T12:07:03.977Z,94666.28
2019-04-02T12:09:43.945Z,94664.45
2019-04-02T12:12:00.631Z,94663.95
2019-04-02T12:14:27.968Z,94663.55
2019-04-02T12:16:55.358Z,94652.65
2019-04-02T12:19:22.694Z,94645.97
2019-04-02T12:21:50.082Z,94640.28
2019-04-02T12:24:19.804Z,94629.73
2019-04-02T12:26:46.677Z,94628.34
2019-04-02T12:29:14.017Z,94620.75
2019-04-02T12:31:41.414Z,94618.66
2019-04-02T12:34:11.047Z,94622.80
2019-04-02T12:36:38.009Z,94617.27
2019-04-02T12:39:11.606Z,94610.30
2019-04-02T12:41:39.470Z,94606.48
2019-04-02T12:44:07.644Z,94602.09
2019-04-02T12:46:35.025Z,94599.96
2019-04-02T12:49:03.603Z,94595.86
2019-04-02T12:51:31.621Z,94586.42
2019-04-02T12:54:00.852Z,94586.31
2019-04-02T12:56:28.353Z,94585.34
2019-04-02T12:58:55.678Z,94584.41
2019-04-02T13:01:23.163Z,94579.98
2019-04-02T13:03:50.546Z,94574.02
2019-04-02T13:06:17.934Z,94563.50
2019-04-02T13:08:45.332Z,94558.05
2019-04-02T13:11:14.083Z,94557.06
2019-04-02T13:13:41.737Z,94543.51
2019-04-02T13:16:09.171Z,94541.94
2019-04-02T13:18:36.649Z,94545.51
2019-04-02T13:21:05.490Z,94533.06
2019-04-02T13:23:33.054Z,94529.28
2019-04-02T13:26:00.438Z,94527.78
2019-04-02T13:28:30.375Z,94533.92
2019-04-02T13:30:57.187Z,94529.45
2019-04-02T13:33:24.583Z,94524.97
2019-04-02T13:35:51.965Z,94534.22
2019-04-02T13:38:19.365Z,94516.00
2019-04-02T13:40:46.726Z,94512.95
2019-04-02T13:43:14.123Z,94510.69
2019-04-02T13:45:41.529Z,94512.70
2019-04-02T13:48:08.928Z,94510.55
2019-04-02T13:50:36.331Z,94505.11
2019-04-02T13:53:03.812Z,94506.86
2019-04-02T13:55:31.208Z,94503.52
2019-04-02T13:57:59.297Z,94506.32
2019-04-02T14:01:11.844Z,94500.39
2019-04-02T14:03:40.509Z,94491.69
2019-04-02T14:06:08.082Z,94488.19
2019-04-02T14:08:35.470Z,94486.80
2019-04-02T14:11:03.052Z,94484.13
2019-04-02T14:13:30.647Z,94481.16
2019-04-02T14:15:58.052Z,94482.75
2019-04-02T14:18:25.609Z,94476.97
2019-04-02T14:20:53.208Z,94476.12
2019-04-02T14:23:20.762Z,94473.38
2019-04-02T14:25:48.281Z,94470.39
2019-04-02T14:28:17.189Z,94468.77
2019-04-02T14:30:45.392Z,94461.00
2019-04-02T14:33:13.177Z,94452.52
2019-04-02T14:35:40.910Z,94454.17
2019-04-02T14:38:08.588Z,94454.27
2019-04-02T14:40:36.422Z,94453.05
2019-04-02T14:43:04.066Z,94448.62
2019-04-02T14:45:31.805Z,94446.13
2019-04-02T14:47:59.696Z,94440.72
2019-04-02T14:50:30.851Z,94443.34
2019-04-02T14:52:56.958Z,94433.16
2019-04-02T14:55:24.758Z,94436.42
2019-04-02T14:57:52.455Z,94427.94
2019-04-02T15:00:20.029Z,94430.16
2019-04-02T15:02:47.608Z,94426.48
2019-04-02T15:05:15.316Z,94419.10
2019-04-02T15:07:42.849Z,94416.94
2019-04-02T15:10:10.520Z,94406.19
2019-04-02T15:12:38.068Z,94408.62
2019-04-02T15:15:05.930Z,94408.55
2019-04-02T15:17:33.728Z,94400.02
2019-04-02T15:20:01.415Z,94404.44
2019-04-02T15:22:28.989Z,94407.14
2019-04-02T15:24:56.673Z,94401.29
2019-04-02T15:27:24.628Z,94397.13
2019-04-02T15:29:52.499Z,94393.68
2019-04-02T15:32:20.163Z,94392.98
2019-04-02T15:34:48.007Z,94400.26
2019-04-02T15:37:15.733Z,94393.78
2019-04-02T15:39:44.281Z,94396.27
2019-04-02T15:42:11.950Z,94390.41
2019-04-02T15:44:39.686Z,94393.27
2019-04-02T15:47:07.493Z,94387.03
2019-04-02T15:49:35.275Z,94390.08
2019-04-02T15:52:06.962Z,94385.48
2019-04-02T15:54:34.931Z,94381.42
2019-04-02T15:57:02.654Z,94389.58
2019-04-02T15:59:30.400Z,94379.61
2019-04-02T16:02:01.911Z,94386.30
2019-04-02T16:04:28.755Z,94393.77
2019-04-02T16:06:56.635Z,94390.98
2019-04-02T16:09:24.406Z,94388.09
2019-04-02T16:11:52.370Z,94384.80
2019-04-02T16:14:20.311Z,94383.64
2019-04-02T16:16:48.206Z,94393.94
2019-04-02T16:19:16.008Z,94386.86
2019-04-02T16:21:43.932Z,94389.07
2019-04-02T16:24:11.698Z,94394.09
2019-04-02T16:26:39.453Z,94394.48
2019-04-02T16:29:07.359Z,94395.99
2019-04-02T16:31:35.175Z,94396.48
2019-04-02T16:34:03.210Z,94404.67
2019-04-02T16:36:31.160Z,94394.49
2019-04-02T16:38:58.991Z,94400.05
2019-04-02T16:41:27.430Z,94402.77
2019-04-02T16:43:55.308Z,94410.88
2019-04-02T16:46:23.216Z,94406.03
2019-04-02T16:48:51.628Z,94411.02
2019-04-02T16:51:19.486Z,94410.76
2019-04-02T16:53:47.328Z,94414.23
2019-04-02T16:56:15.289Z,94414.64
2019-04-02T16:58:43.213Z,94406.50
2019-04-02T17:01:11.048Z,94412.78
2019-04-02T17:03:48.239Z,94408.38
2019-04-02T17:06:09.388Z,94404.27
2019-04-02T17:08:37.348Z,94408.64
2019-04-02T17:11:05.311Z,94406.00
2019-04-02T17:13:34.530Z,94403.19
2019-04-02T17:16:02.777Z,94409.58
2019-04-02T17:18:30.664Z,94413.13
2019-04-02T17:20:58.580Z,94415.55
2019-04-02T17:23:26.571Z,94422.87
2019-04-02T17:25:54.874Z,94416.55
2019-04-02T17:28:23.666Z,94423.53
2019-04-02T17:30:52.883Z,94420.48
2019-04-02T17:33:21.960Z,94427.93
2019-04-02T17:35:50.131Z,94435.39
2019-04-02T17:38:18.237Z,94433.45
2019-04-02T17:40:46.195Z,94430.02
2019-04-02T17:43:14.052Z,94426.95
2019-04-02T17:45:42.085Z,94435.84
2019-04-02T17:48:10.122Z,94432.02
2019-04-02T17:50:38.116Z,94439.41
2019-04-02T17:53:08.787Z,94439.63
2019-04-02T17:55:36.306Z,94442.15
2019-04-02T17:58:04.345Z,94442.75
2019-04-02T18:00:32.447Z,94447.92
2019-04-02T18:03:00.525Z,94443.81
2019-04-02T18:05:28.547Z,94447.76
2019-04-02T18:07:56.643Z,94448.92
2019-04-02T18:10:26.202Z,94454.85
2019-04-02T18:12:54.612Z,94455.52
2019-04-02T18:15:22.615Z,94458.31
2019-04-02T18:17:50.572Z,94451.54
2019-04-02T18:20:18.511Z,94459.11
2019-04-02T18:22:46.458Z,94460.42
2019-04-02T18:25:14.523Z,94462.59
2019-04-02T18:27:43.974Z,94460.56
2019-04-02T18:30:14.036Z,94459.80
2019-04-02T18:32:42.696Z,94465.48
2019-04-02T18:35:10.728Z,94467.69
2019-04-02T18:37:38.738Z,94470.48
2019-04-02T18:40:07.775Z,94474.91
2019-04-02T18:42:36.772Z,94484.67
2019-04-02T18:45:05.851Z,94479.08
2019-04-02T18:47:35.385Z,94473.47
2019-04-02T18:50:03.703Z,94479.04
2019-04-02T18:52:31.790Z,94487.67
2019-04-02T18:54:59.881Z,94489.58
2019-04-02T18:57:27.887Z,94493.56
2019-04-02T18:59:58.234Z,94489.95
2019-04-02T19:02:29.261Z,94485.91
2019-04-02T19:04:56.333Z,94490.31
2019-04-02T19:07:24.832Z,94496.02
2019-04-02T19:09:52.939Z,94503.62
2019-04-02T19:12:20.863Z,94497.36
2019-04-02T19:18:12.804Z,94503.03
2019-04-02T19:20:41.077Z,94514.30
2019-04-02T19:23:10.389Z,94512.39
2019-04-02T19:25:38.854Z,94510.70
2019-04-02T19:28:09.971Z,94507.03
2019-04-02T19:30:38.583Z,94510.03
2019-04-02T19:33:09.858Z,94500.78
2019-04-02T19:35:37.955Z,94500.48
2019-04-02T19:38:06.083Z,94506.75
2019-04-02T19:40:34.647Z,94502.92
2019-04-02T19:43:07.824Z,94509.62
2019-04-02T19:45:32.569Z,94508.25
2019-04-02T19:48:03.336Z,94504.59
2019-04-02T19:50:30.486Z,94499.41
2019-04-02T19:52:59.006Z,94506.73
2019-04-02T19:55:26.992Z,94508.05
2019-04-02T19:57:54.999Z,94512.55
2019-04-02T20:00:23.051Z,94516.33
2019-04-02T20:02:50.875Z,94509.14
2019-04-02T20:05:19.803Z,94506.84
2019-04-02T20:07:49.346Z,94503.50
2019-04-02T20:10:17.511Z,94495.41
2019-04-02T20:12:45.499Z,94500.95
2019-04-02T20:15:13.609Z,94499.92
2019-04-02T20:17:41.630Z,94504.11
2019-04-02T20:20:10.027Z,94506.58
2019-04-02T20:22:37.965Z,94505.09
2019-04-02T20:25:06.131Z,94505.69
2019-04-02T20:27:34.054Z,94507.44
2019-04-02T20:30:04.900Z,94497.32
2019-04-02T20:32:32.729Z,94506.03
2019-04-02T20:35:00.709Z,94511.45
2019-04-02T20:37:30.507Z,94505.85
2019-04-02T20:39:59.015Z,94502.67
2019-04-02T20:42:28.969Z,94492.75
2019-04-02T20:44:57.287Z,94499.50
2019-04-02T20:47:24.956Z,94501.16
2019-04-02T20:49:52.906Z,94489.44
2019-04-02T20:52:20.846Z,94495.38
2019-04-02T20:54:48.810Z,94493.09
2019-04-02T20:57:16.645Z,94492.53
2019-04-02T20:59:46.721Z,94494.24
2019-04-02T21:02:14.665Z,94495.87
2019-04-02T21:04:52.046Z,94492.88
2019-04-02T21:07:12.315Z,94494.99
2019-04-02T21:09:39.943Z,94499.27
2019-04-02T21:12:11.530Z,94501.62
2019-04-02T21:14:37.406Z,94508.08
2019-04-02T21:17:04.928Z,94503.31
2019-04-02T21:19:32.409Z,94501.30
2019-04-02T21:22:00.175Z,94511.73
2019-04-02T21:24:27.641Z,94508.12
2019-04-02T21:26:55.026Z,94508.73
2019-04-02T21:29:23.630Z,94509.67
2019-04-02T21:31:51.791Z,94507.61
2019-04-02T21:34:19.222Z,94498.05
2019-04-02T21:36:48.230Z,94499.20
2019-04-02T21:39:17.048Z,94501.74
2019-04-02T21:41:45.030Z,94499.98
2019-04-02T21:44:12.591Z,94505.08
2019-04-02T21:46:39.971Z,94501.48
2019-04-02T21:49:07.586Z,94501.47
2019-04-02T21:51:35.586Z,94508.22
2019-04-02T21:54:04.426Z,94504.89
2019-04-02T21:56:31.769Z,94507.58
2019-04-02T21:58:59.161Z,94509.56
2019-04-02T22:01:26.710Z,94503.84
2019-04-02T22:03:54.119Z,94503.27
2019-04-02T22:06:21.539Z,94503.00
2019-04-02T22:08:48.909Z,94509.53
2019-04-02T22:11:16.291Z,94501.93
2019-04-02T22:13:43.626Z,94513.69
2019-04-02T22:16:12.834Z,94504.56
2019-04-02T22:18:41.557Z,94500.48
2019-04-02T22:21:09.645Z,94502.30
2019-04-02T22:23:37.012Z,94502.27
2019-04-02T22:26:04.613Z,94504.85
2019-04-02T22:28:31.990Z,94509.33
2019-04-02T22:30:59.398Z,94506.52
2019-04-02T22:33:36.324Z,94513.16
2019-04-02T22:35:56.111Z,94510.55
2019-04-02T22:38:24.748Z,94502.33
2019-04-02T22:40:53.950Z,94505.35
2019-04-02T22:43:23.709Z,94512.55
2019-04-02T22:45:50.904Z,94500.86
2019-04-02T22:48:18.303Z,94503.70
2019-04-02T22:50:47.646Z,94501.22
2019-04-02T22:53:15.007Z,94497.66
2019-04-02T22:55:42.366Z,94491.03
2019-04-02T22:58:09.796Z,94498.20
2019-04-02T23:00:37.191Z,94494.17
2019-04-02T23:03:04.591Z,94496.72
2019-04-02T23:05:32.868Z,94497.41
2019-04-02T23:08:03.231Z,94492.70
2019-04-02T23:10:30.208Z,94488.09
2019-04-02T23:12:57.622Z,94485.72
2019-04-02T23:15:25.012Z,94489.98
2019-04-02T23:17:55.688Z,94482.45
2019-04-02T23:20:21.753Z,94477.94
2019-04-02T23:22:49.091Z,94487.27
2019-04-02T23:25:17.745Z,94480.70
2019-04-02T23:27:46.977Z,94478.66
2019-04-02T23:30:15.015Z,94483.76
2019-04-02T23:32:42.431Z,94480.47
2019-04-02T23:35:09.809Z,94472.48
2019-04-02T23:37:37.251Z,94478.70
2019-04-02T23:40:06.779Z,94481.47
2019-04-02T23:42:34.189Z,94475.02
2019-04-02T23:45:03.027Z,94486.84
2019-04-02T23:47:31.763Z,94485.21
2019-04-02T23:50:00.092Z,94480.63
2019-04-02T23:52:27.470Z,94483.02
2019-04-02T23:54:54.831Z,94472.64
2019-04-02T23:57:22.231Z,94466.64
2019-04-02T23:59:49.595Z,94473.00
